sensor_id;sensor_type;location;lat;lon;timestamp;pressure;altitude;pressure_sealevel;temperature;humidity
47366;BME280;33105;47.964;7.982;2022-10-15T00:02:07;96217.66;;;14.32;96.93
47366;BME280;33105;47.964;7.982;2022-10-15T00:05:08;96228.06;;;14.35;97.16
47366;BME280;33105;47.964;7.982;2022-10-15T00:08:10;96218.31;;;14.43;96.03
47366;BME280;33105;47.964;7.982;2022-10-15T00:11:21;96216.16;;;14.58;94.35
47366;BME280;33105;47.964;7.982;2022-10-15T00:14:25;96223.81;;;14.43;96.66
47366;BME280;33105;47.964;7.982;2022-10-15T00:17:26;96221.50;;;14.31;95.82
47366;BME280;33105;47.964;7.982;2022-10-15T00:20:31;96223.22;;;14.46;95.35
47366;BME280;33105;47.964;7.982;2022-10-15T00:23:43;96216.09;;;14.45;95.96
47366;BME280;33105;47.964;7.982;2022-10-15T00:26:46;96224.97;;;14.37;96.67
47366;BME280;33105;47.964;7.982;2022-10-15T00:29:47;96226.59;;;14.38;95.06
47366;BME280;33105;47.964;7.982;2022-10-15T00:32:48;96206.84;;;14.36;95.30
47366;BME280;33105;47.964;7.982;2022-10-15T00:35:58;96229.66;;;14.36;95.10
47366;BME280;33105;47.964;7.982;2022-10-15T00:39:00;96233.31;;;14.32;94.13
47366;BME280;33105;47.964;7.982;2022-10-15T00:42:05;96221.28;;;14.27;95.02
47366;BME280;33105;47.964;7.982;2022-10-15T00:45:14;96211.72;;;14.44;91.82
47366;BME280;33105;47.964;7.982;2022-10-15T00:48:29;96232.66;;;14.58;92.08
47366;BME280;33105;47.964;7.982;2022-10-15T00:51:35;96240.53;;;14.46;93.09
47366;BME280;33105;47.964;7.982;2022-10-15T00:54:42;96228.38;;;14.66;92.09
47366;BME280;33105;47.964;7.982;2022-10-15T00:57:46;96232.94;;;14.57;93.70
47366;BME280;33105;47.964;7.982;2022-10-15T01:00:56;96243.09;;;14.38;94.58
47366;BME280;33105;47.964;7.982;2022-10-15T01:04:04;96242.97;;;14.29;94.75
47366;BME280;33105;47.964;7.982;2022-10-15T01:07:07;96240.06;;;14.20;95.26
47366;BME280;33105;47.964;7.982;2022-10-15T01:10:09;96240.22;;;14.29;94.36
47366;BME280;33105;47.964;7.982;2022-10-15T01:13:32;96238.00;;;14.50;90.68
47366;BME280;33105;47.964;7.982;2022-10-15T01:16:50;96236.13;;;14.26;92.90
47366;BME280;33105;47.964;7.982;2022-10-15T01:20:37;96230.66;;;14.26;93.15
47366;BME280;33105;47.964;7.982;2022-10-15T01:28:07;96246.03;;;14.27;93.22
47366;BME280;33105;47.964;7.982;2022-10-15T01:31:23;96245.03;;;14.18;92.76
47366;BME280;33105;47.964;7.982;2022-10-15T01:34:50;96247.50;;;14.01;92.72
47366;BME280;33105;47.964;7.982;2022-10-15T01:38:09;96248.78;;;14.09;91.85
47366;BME280;33105;47.964;7.982;2022-10-15T01:44:41;96231.31;;;14.00;93.48
47366;BME280;33105;47.964;7.982;2022-10-15T01:47:57;96235.19;;;13.99;94.56
47366;BME280;33105;47.964;7.982;2022-10-15T01:51:03;96227.38;;;14.24;95.51
47366;BME280;33105;47.964;7.982;2022-10-15T01:54:18;96224.34;;;14.07;96.63
47366;BME280;33105;47.964;7.982;2022-10-15T01:57:29;96226.81;;;14.09;96.22
47366;BME280;33105;47.964;7.982;2022-10-15T02:00:32;96216.16;;;14.21;96.86
47366;BME280;33105;47.964;7.982;2022-10-15T02:03:51;96225.53;;;14.20;95.30
47366;BME280;33105;47.964;7.982;2022-10-15T02:10:18;96228.19;;;14.25;95.01
47366;BME280;33105;47.964;7.982;2022-10-15T02:13:51;96231.69;;;14.30;95.70
47366;BME280;33105;47.964;7.982;2022-10-15T02:17:28;96199.31;;;14.27;95.58
47366;BME280;33105;47.964;7.982;2022-10-15T02:21:10;96215.28;;;14.25;94.66
47366;BME280;33105;47.964;7.982;2022-10-15T02:24:26;96213.13;;;14.22;95.09
47366;BME280;33105;47.964;7.982;2022-10-15T02:27:35;96202.81;;;14.33;94.67
47366;BME280;33105;47.964;7.982;2022-10-15T02:30:49;96195.00;;;14.21;94.80
47366;BME280;33105;47.964;7.982;2022-10-15T02:34:11;96190.25;;;14.27;93.21
47366;BME280;33105;47.964;7.982;2022-10-15T02:37:20;96225.59;;;14.15;95.48
47366;BME280;33105;47.964;7.982;2022-10-15T02:40:28;96218.69;;;14.17;94.57
47366;BME280;33105;47.964;7.982;2022-10-15T02:43:41;96212.38;;;13.98;96.07
47366;BME280;33105;47.964;7.982;2022-10-15T02:46:48;96210.44;;;14.17;94.17
47366;BME280;33105;47.964;7.982;2022-10-15T02:49:52;96215.34;;;14.02;96.31
47366;BME280;33105;47.964;7.982;2022-10-15T02:52:56;96214.31;;;13.98;95.47
47366;BME280;33105;47.964;7.982;2022-10-15T02:56:02;96215.72;;;14.14;94.16
47366;BME280;33105;47.964;7.982;2022-10-15T02:59:13;96233.31;;;13.94;95.80
47366;BME280;33105;47.964;7.982;2022-10-15T03:02:19;96227.34;;;13.87;96.76
47366;BME280;33105;47.964;7.982;2022-10-15T03:05:32;96228.47;;;13.86;97.06
47366;BME280;33105;47.964;7.982;2022-10-15T03:08:38;96221.56;;;13.88;96.41
47366;BME280;33105;47.964;7.982;2022-10-15T03:11:50;96215.13;;;13.79;97.13
47366;BME280;33105;47.964;7.982;2022-10-15T03:14:53;96225.28;;;13.79;96.24
47366;BME280;33105;47.964;7.982;2022-10-15T03:17:57;96202.59;;;13.92;94.64
47366;BME280;33105;47.964;7.982;2022-10-15T03:21:00;96215.06;;;13.84;97.43
47366;BME280;33105;47.964;7.982;2022-10-15T03:24:08;96225.22;;;13.84;96.69
47366;BME280;33105;47.964;7.982;2022-10-15T03:27:12;96219.00;;;13.78;97.04
47366;BME280;33105;47.964;7.982;2022-10-15T03:30:15;96219.22;;;13.82;97.42
47366;BME280;33105;47.964;7.982;2022-10-15T03:33:34;96219.56;;;13.75;97.31
47366;BME280;33105;47.964;7.982;2022-10-15T03:36:39;96215.88;;;13.85;97.00
47366;BME280;33105;47.964;7.982;2022-10-15T03:39:44;96228.75;;;13.66;97.79
47366;BME280;33105;47.964;7.982;2022-10-15T03:43:00;96220.97;;;13.73;98.33
47366;BME280;33105;47.964;7.982;2022-10-15T03:46:11;96221.56;;;13.70;98.13
47366;BME280;33105;47.964;7.982;2022-10-15T03:49:20;96235.34;;;13.65;97.65
47366;BME280;33105;47.964;7.982;2022-10-15T03:52:26;96220.16;;;13.72;96.98
47366;BME280;33105;47.964;7.982;2022-10-15T03:55:36;96220.69;;;13.74;97.13
47366;BME280;33105;47.964;7.982;2022-10-15T03:58:43;96229.03;;;13.64;97.63
47366;BME280;33105;47.964;7.982;2022-10-15T04:01:50;96218.28;;;13.68;96.67
47366;BME280;33105;47.964;7.982;2022-10-15T04:05:01;96222.63;;;13.74;96.85
47366;BME280;33105;47.964;7.982;2022-10-15T04:08:03;96227.22;;;13.78;96.10
47366;BME280;33105;47.964;7.982;2022-10-15T04:11:08;96214.31;;;13.79;96.19
47366;BME280;33105;47.964;7.982;2022-10-15T04:14:09;96229.81;;;13.88;95.72
47366;BME280;33105;47.964;7.982;2022-10-15T04:17:19;96226.34;;;13.83;95.73
47366;BME280;33105;47.964;7.982;2022-10-15T04:20:23;96224.56;;;13.92;94.89
47366;BME280;33105;47.964;7.982;2022-10-15T04:23:25;96243.47;;;13.93;94.40
47366;BME280;33105;47.964;7.982;2022-10-15T04:26:49;96234.41;;;13.93;93.34
47366;BME280;33105;47.964;7.982;2022-10-15T04:29:56;96236.34;;;13.92;93.24
47366;BME280;33105;47.964;7.982;2022-10-15T04:33:04;96245.28;;;14.03;94.25
47366;BME280;33105;47.964;7.982;2022-10-15T04:36:13;96243.13;;;14.00;94.67
47366;BME280;33105;47.964;7.982;2022-10-15T04:39:32;96248.84;;;13.85;94.88
47366;BME280;33105;47.964;7.982;2022-10-15T04:42:38;96245.09;;;13.76;95.08
47366;BME280;33105;47.964;7.982;2022-10-15T04:45:49;96246.84;;;13.67;96.17
47366;BME280;33105;47.964;7.982;2022-10-15T04:49:00;96244.34;;;13.70;95.14
47366;BME280;33105;47.964;7.982;2022-10-15T04:52:07;96265.44;;;13.75;95.81
47366;BME280;33105;47.964;7.982;2022-10-15T04:55:32;96259.66;;;13.76;94.01
47366;BME280;33105;47.964;7.982;2022-10-15T04:58:35;96251.09;;;13.59;95.73
47366;BME280;33105;47.964;7.982;2022-10-15T05:01:37;96260.97;;;13.60;95.44
47366;BME280;33105;47.964;7.982;2022-10-15T05:04:43;96263.63;;;13.65;95.35
47366;BME280;33105;47.964;7.982;2022-10-15T05:07:45;96274.34;;;13.61;96.00
47366;BME280;33105;47.964;7.982;2022-10-15T05:10:46;96266.75;;;13.58;96.41
47366;BME280;33105;47.964;7.982;2022-10-15T05:13:48;96266.78;;;13.53;96.00
47366;BME280;33105;47.964;7.982;2022-10-15T05:16:50;96285.75;;;13.50;95.76
47366;BME280;33105;47.964;7.982;2022-10-15T05:19:51;96291.78;;;13.52;95.74
47366;BME280;33105;47.964;7.982;2022-10-15T05:22:57;96302.84;;;13.42;97.36
47366;BME280;33105;47.964;7.982;2022-10-15T05:26:11;96285.53;;;13.70;95.27
47366;BME280;33105;47.964;7.982;2022-10-15T05:29:12;96289.97;;;13.42;96.66
47366;BME280;33105;47.964;7.982;2022-10-15T05:32:14;96288.84;;;13.43;96.94
47366;BME280;33105;47.964;7.982;2022-10-15T05:35:15;96295.16;;;13.44;96.73
47366;BME280;33105;47.964;7.982;2022-10-15T05:38:41;96294.34;;;13.43;95.33
47366;BME280;33105;47.964;7.982;2022-10-15T05:41:45;96299.72;;;13.53;96.30
47366;BME280;33105;47.964;7.982;2022-10-15T05:44:48;96311.38;;;13.40;96.13
47366;BME280;33105;47.964;7.982;2022-10-15T05:47:55;96321.78;;;13.43;96.28
47366;BME280;33105;47.964;7.982;2022-10-15T05:51:11;96331.69;;;13.39;95.80
47366;BME280;33105;47.964;7.982;2022-10-15T05:54:13;96321.94;;;13.28;96.18
47366;BME280;33105;47.964;7.982;2022-10-15T05:57:21;96338.06;;;13.35;95.53
47366;BME280;33105;47.964;7.982;2022-10-15T06:00:22;96327.69;;;13.32;95.35
47366;BME280;33105;47.964;7.982;2022-10-15T06:03:27;96328.38;;;13.42;94.03
47366;BME280;33105;47.964;7.982;2022-10-15T06:06:31;96338.16;;;13.53;93.83
47366;BME280;33105;47.964;7.982;2022-10-15T06:09:36;96325.22;;;13.30;94.50
47366;BME280;33105;47.964;7.982;2022-10-15T06:12:50;96335.91;;;13.32;94.29
47366;BME280;33105;47.964;7.982;2022-10-15T06:15:52;96349.34;;;13.33;94.33
47366;BME280;33105;47.964;7.982;2022-10-15T06:18:56;96338.97;;;13.54;92.94
47366;BME280;33105;47.964;7.982;2022-10-15T06:21:58;96340.75;;;13.40;91.38
47366;BME280;33105;47.964;7.982;2022-10-15T06:24:59;96351.97;;;13.43;93.61
47366;BME280;33105;47.964;7.982;2022-10-15T06:28:06;96347.13;;;13.35;92.03
47366;BME280;33105;47.964;7.982;2022-10-15T06:31:15;96354.56;;;13.58;91.03
47366;BME280;33105;47.964;7.982;2022-10-15T06:34:19;96364.94;;;13.61;94.37
47366;BME280;33105;47.964;7.982;2022-10-15T06:37:21;96368.53;;;13.33;93.09
47366;BME280;33105;47.964;7.982;2022-10-15T06:40:27;96378.81;;;13.46;95.49
47366;BME280;33105;47.964;7.982;2022-10-15T06:43:29;96376.28;;;13.26;94.10
47366;BME280;33105;47.964;7.982;2022-10-15T06:46:30;96384.94;;;13.38;93.29
47366;BME280;33105;47.964;7.982;2022-10-15T06:49:40;96392.13;;;13.34;93.36
47366;BME280;33105;47.964;7.982;2022-10-15T06:52:42;96392.75;;;13.26;93.79
47366;BME280;33105;47.964;7.982;2022-10-15T06:55:47;96387.22;;;13.31;93.01
47366;BME280;33105;47.964;7.982;2022-10-15T06:58:51;96379.69;;;13.42;94.28
47366;BME280;33105;47.964;7.982;2022-10-15T07:01:52;96390.25;;;13.58;93.71
47366;BME280;33105;47.964;7.982;2022-10-15T07:04:54;96390.53;;;13.28;92.74
47366;BME280;33105;47.964;7.982;2022-10-15T07:07:57;96399.06;;;13.55;94.41
47366;BME280;33105;47.964;7.982;2022-10-15T07:11:04;96391.44;;;13.47;92.57
47366;BME280;33105;47.964;7.982;2022-10-15T07:14:30;96383.13;;;13.28;91.74
47366;BME280;33105;47.964;7.982;2022-10-15T07:17:34;96384.81;;;13.53;89.43
47366;BME280;33105;47.964;7.982;2022-10-15T07:20:39;96389.88;;;13.65;90.96
47366;BME280;33105;47.964;7.982;2022-10-15T07:23:43;96392.03;;;13.68;91.85
47366;BME280;33105;47.964;7.982;2022-10-15T07:26:46;96400.75;;;13.75;88.95
47366;BME280;33105;47.964;7.982;2022-10-15T07:29:57;96411.13;;;13.83;90.36
47366;BME280;33105;47.964;7.982;2022-10-15T07:32:58;96404.91;;;13.73;92.63
47366;BME280;33105;47.964;7.982;2022-10-15T07:36:05;96407.06;;;13.76;91.96
47366;BME280;33105;47.964;7.982;2022-10-15T07:39:08;96416.31;;;13.85;90.31
47366;BME280;33105;47.964;7.982;2022-10-15T07:42:12;96413.88;;;13.83;91.57
47366;BME280;33105;47.964;7.982;2022-10-15T07:45:19;96407.91;;;14.00;89.03
47366;BME280;33105;47.964;7.982;2022-10-15T07:48:21;96414.69;;;14.08;88.24
47366;BME280;33105;47.964;7.982;2022-10-15T07:51:26;96425.06;;;13.87;91.86
47366;BME280;33105;47.964;7.982;2022-10-15T07:54:27;96426.81;;;13.78;89.15
47366;BME280;33105;47.964;7.982;2022-10-15T07:57:29;96426.94;;;13.91;87.23
47366;BME280;33105;47.964;7.982;2022-10-15T08:00:33;96440.66;;;13.91;88.66
47366;BME280;33105;47.964;7.982;2022-10-15T08:03:40;96438.47;;;13.93;88.13
47366;BME280;33105;47.964;7.982;2022-10-15T08:06:45;96436.72;;;14.26;89.01
47366;BME280;33105;47.964;7.982;2022-10-15T08:09:48;96442.97;;;14.08;86.98
47366;BME280;33105;47.964;7.982;2022-10-15T08:12:55;96436.53;;;14.42;85.29
47366;BME280;33105;47.964;7.982;2022-10-15T08:15:56;96439.66;;;14.59;88.70
47366;BME280;33105;47.964;7.982;2022-10-15T08:18:58;96436.13;;;14.29;84.68
47366;BME280;33105;47.964;7.982;2022-10-15T08:22:02;96438.22;;;14.38;85.03
47366;BME280;33105;47.964;7.982;2022-10-15T08:25:04;96444.09;;;14.55;83.34
47366;BME280;33105;47.964;7.982;2022-10-15T08:28:13;96434.38;;;14.81;82.82
47366;BME280;33105;47.964;7.982;2022-10-15T08:31:25;96433.56;;;15.00;80.74
47366;BME280;33105;47.964;7.982;2022-10-15T08:34:26;96433.38;;;15.28;83.82
47366;BME280;33105;47.964;7.982;2022-10-15T08:37:35;96431.69;;;15.14;82.81
47366;BME280;33105;47.964;7.982;2022-10-15T08:40:46;96443.72;;;15.18;84.49
47366;BME280;33105;47.964;7.982;2022-10-15T08:43:48;96434.53;;;15.09;84.21
47366;BME280;33105;47.964;7.982;2022-10-15T08:47:07;96435.03;;;15.11;87.25
47366;BME280;33105;47.964;7.982;2022-10-15T08:50:25;96457.28;;;14.95;84.84
47366;BME280;33105;47.964;7.982;2022-10-15T08:53:38;96441.56;;;14.58;84.49
47366;BME280;33105;47.964;7.982;2022-10-15T08:57:00;96455.69;;;14.71;87.58
47366;BME280;33105;47.964;7.982;2022-10-15T09:00:16;96441.19;;;14.65;82.10
47366;BME280;33105;47.964;7.982;2022-10-15T09:03:43;96443.22;;;14.59;86.31
47366;BME280;33105;47.964;7.982;2022-10-15T09:07:01;96440.13;;;14.42;84.81
47366;BME280;33105;47.964;7.982;2022-10-15T09:10:44;96421.06;;;14.70;80.78
47366;BME280;33105;47.964;7.982;2022-10-15T09:13:50;96428.66;;;14.78;84.34
47366;BME280;33105;47.964;7.982;2022-10-15T09:17:05;96430.78;;;14.62;81.21
47366;BME280;33105;47.964;7.982;2022-10-15T09:20:22;96432.63;;;14.48;86.29
47366;BME280;33105;47.964;7.982;2022-10-15T09:23:28;96426.59;;;14.46;85.80
47366;BME280;33105;47.964;7.982;2022-10-15T09:26:46;96428.72;;;14.54;82.14
47366;BME280;33105;47.964;7.982;2022-10-15T09:36:48;96432.91;;;14.46;84.71
47366;BME280;33105;47.964;7.982;2022-10-15T09:40:15;96446.59;;;14.51;81.17
47366;BME280;33105;47.964;7.982;2022-10-15T09:43:30;96441.66;;;14.72;84.20
47366;BME280;33105;47.964;7.982;2022-10-15T09:46:45;96439.19;;;14.52;82.83
47366;BME280;33105;47.964;7.982;2022-10-15T09:49:50;96442.69;;;14.76;83.15
47366;BME280;33105;47.964;7.982;2022-10-15T09:56:15;96452.78;;;14.62;82.40
47366;BME280;33105;47.964;7.982;2022-10-15T09:59:19;96452.19;;;14.65;83.86
47366;BME280;33105;47.964;7.982;2022-10-15T10:02:24;96457.25;;;14.58;85.82
47366;BME280;33105;47.964;7.982;2022-10-15T10:05:28;96456.81;;;14.88;84.77
47366;BME280;33105;47.964;7.982;2022-10-15T10:08:48;96449.59;;;14.74;81.19
47366;BME280;33105;47.964;7.982;2022-10-15T10:11:54;96459.50;;;14.93;81.16
47366;BME280;33105;47.964;7.982;2022-10-15T10:15:04;96459.84;;;14.87;82.82
47366;BME280;33105;47.964;7.982;2022-10-15T10:18:18;96452.34;;;14.92;78.79
47366;BME280;33105;47.964;7.982;2022-10-15T10:21:27;96456.09;;;14.83;78.42
47366;BME280;33105;47.964;7.982;2022-10-15T10:24:33;96443.44;;;15.01;76.44
47366;BME280;33105;47.964;7.982;2022-10-15T10:27:35;96453.53;;;14.86;78.71
47366;BME280;33105;47.964;7.982;2022-10-15T10:33:48;96450.06;;;15.00;81.59
47366;BME280;33105;47.964;7.982;2022-10-15T10:36:51;96458.03;;;15.01;79.63
47366;BME280;33105;47.964;7.982;2022-10-15T10:39:58;96454.00;;;15.12;80.43
47366;BME280;33105;47.964;7.982;2022-10-15T10:46:27;96451.91;;;15.23;78.85
47366;BME280;33105;47.964;7.982;2022-10-15T10:50:24;96452.22;;;15.03;77.54
47366;BME280;33105;47.964;7.982;2022-10-15T10:53:24;96452.88;;;15.13;78.54
47366;BME280;33105;47.964;7.982;2022-10-15T10:56:41;96458.84;;;15.02;80.11
47366;BME280;33105;47.964;7.982;2022-10-15T10:59:52;96449.31;;;15.13;78.90
47366;BME280;33105;47.964;7.982;2022-10-15T11:02:55;96450.94;;;15.14;81.87
47366;BME280;33105;47.964;7.982;2022-10-15T11:13:33;96434.47;;;15.46;75.82
47366;BME280;33105;47.964;7.982;2022-10-15T11:17:07;96427.34;;;15.78;77.74
47366;BME280;33105;47.964;7.982;2022-10-15T11:20:30;96439.28;;;15.87;76.87
47366;BME280;33105;47.964;7.982;2022-10-15T11:24:11;96435.53;;;15.83;74.51
47366;BME280;33105;47.964;7.982;2022-10-15T11:27:40;96439.19;;;15.92;78.67
47366;BME280;33105;47.964;7.982;2022-10-15T11:38:53;96436.47;;;16.19;71.77
47366;BME280;33105;47.964;7.982;2022-10-15T11:43:16;96415.03;;;16.44;72.77
47366;BME280;33105;47.964;7.982;2022-10-15T11:56:15;96415.06;;;17.29;74.72
47366;BME280;33105;47.964;7.982;2022-10-15T12:02:37;96420.19;;;16.86;74.31
47366;BME280;33105;47.964;7.982;2022-10-15T12:05:45;96426.63;;;17.31;72.27
47366;BME280;33105;47.964;7.982;2022-10-15T12:08:49;96426.22;;;16.88;71.48
47366;BME280;33105;47.964;7.982;2022-10-15T12:12:16;96429.25;;;17.00;73.21
47366;BME280;33105;47.964;7.982;2022-10-15T12:15:30;96429.22;;;17.14;71.59
47366;BME280;33105;47.964;7.982;2022-10-15T12:18:50;96427.66;;;17.22;77.29
47366;BME280;33105;47.964;7.982;2022-10-15T12:24:57;96420.75;;;17.33;73.71
47366;BME280;33105;47.964;7.982;2022-10-15T12:28:03;96420.19;;;17.22;75.29
47366;BME280;33105;47.964;7.982;2022-10-15T12:31:05;96410.19;;;17.13;75.43
47366;BME280;33105;47.964;7.982;2022-10-15T12:37:51;96412.34;;;17.16;74.39
47366;BME280;33105;47.964;7.982;2022-10-15T12:41:02;96428.34;;;16.91;76.59
47366;BME280;33105;47.964;7.982;2022-10-15T12:47:56;96427.91;;;16.76;74.43
47366;BME280;33105;47.964;7.982;2022-10-15T12:54:41;96406.50;;;17.17;74.19
47366;BME280;33105;47.964;7.982;2022-10-15T13:00:45;96402.91;;;16.94;72.79
47366;BME280;33105;47.964;7.982;2022-10-15T13:06:50;96381.06;;;16.84;74.97
47366;BME280;33105;47.964;7.982;2022-10-15T13:09:52;96396.19;;;16.87;74.86
47366;BME280;33105;47.964;7.982;2022-10-15T13:13:02;96404.50;;;16.73;75.00
47366;BME280;33105;47.964;7.982;2022-10-15T13:16:07;96405.81;;;16.62;75.26
47366;BME280;33105;47.964;7.982;2022-10-15T13:19:17;96398.88;;;16.37;76.36
47366;BME280;33105;47.964;7.982;2022-10-15T13:22:23;96392.63;;;16.59;78.63
47366;BME280;33105;47.964;7.982;2022-10-15T13:25:24;96401.09;;;16.62;78.73
47366;BME280;33105;47.964;7.982;2022-10-15T13:28:34;96408.88;;;16.60;78.98
47366;BME280;33105;47.964;7.982;2022-10-15T13:31:39;96399.72;;;16.65;75.60
47366;BME280;33105;47.964;7.982;2022-10-15T13:34:40;96395.25;;;16.91;76.05
47366;BME280;33105;47.964;7.982;2022-10-15T13:37:42;96401.66;;;17.00;77.13
47366;BME280;33105;47.964;7.982;2022-10-15T13:40:49;96409.63;;;17.02;77.18
47366;BME280;33105;47.964;7.982;2022-10-15T13:43:51;96403.66;;;17.09;73.51
47366;BME280;33105;47.964;7.982;2022-10-15T13:46:54;96405.47;;;17.27;75.07
47366;BME280;33105;47.964;7.982;2022-10-15T13:53:22;96404.59;;;16.68;76.31
47366;BME280;33105;47.964;7.982;2022-10-15T13:56:30;96394.19;;;16.65;75.41
47366;BME280;33105;47.964;7.982;2022-10-15T13:59:31;96381.22;;;17.02;76.36
47366;BME280;33105;47.964;7.982;2022-10-15T14:02:33;96380.16;;;17.11;74.50
47366;BME280;33105;47.964;7.982;2022-10-15T14:05:34;96382.72;;;17.52;75.36
47366;BME280;33105;47.964;7.982;2022-10-15T14:08:36;96373.56;;;17.65;75.78
47366;BME280;33105;47.964;7.982;2022-10-15T14:11:37;96381.00;;;17.87;73.31
47366;BME280;33105;47.964;7.982;2022-10-15T14:14:43;96383.81;;;17.96;75.77
47366;BME280;33105;47.964;7.982;2022-10-15T14:17:49;96386.69;;;17.91;73.63
47366;BME280;33105;47.964;7.982;2022-10-15T14:20:51;96390.50;;;18.04;73.99
47366;BME280;33105;47.964;7.982;2022-10-15T14:24:11;96387.97;;;17.85;73.45
47366;BME280;33105;47.964;7.982;2022-10-15T14:27:19;96383.25;;;17.85;74.60
47366;BME280;33105;47.964;7.982;2022-10-15T14:30:26;96382.34;;;17.67;74.43
47366;BME280;33105;47.964;7.982;2022-10-15T14:36:41;96379.09;;;17.65;72.81
47366;BME280;33105;47.964;7.982;2022-10-15T14:39:46;96389.88;;;17.53;77.05
47366;BME280;33105;47.964;7.982;2022-10-15T14:43:04;96378.59;;;16.96;73.40
47366;BME280;33105;47.964;7.982;2022-10-15T14:46:10;96380.44;;;16.87;73.65
47366;BME280;33105;47.964;7.982;2022-10-15T14:49:28;96389.13;;;16.94;78.81
47366;BME280;33105;47.964;7.982;2022-10-15T14:52:30;96390.09;;;16.76;77.61
47366;BME280;33105;47.964;7.982;2022-10-15T14:55:35;96394.56;;;16.58;79.51
47366;BME280;33105;47.964;7.982;2022-10-15T14:58:38;96385.19;;;16.73;78.36
47366;BME280;33105;47.964;7.982;2022-10-15T15:01:55;96387.09;;;16.86;79.80
47366;BME280;33105;47.964;7.982;2022-10-15T15:08:11;96398.63;;;16.88;78.13
47366;BME280;33105;47.964;7.982;2022-10-15T15:11:16;96393.88;;;16.80;80.33
47366;BME280;33105;47.964;7.982;2022-10-15T15:14:23;96391.84;;;16.45;78.25
47366;BME280;33105;47.964;7.982;2022-10-15T15:17:27;96372.03;;;16.56;76.95
47366;BME280;33105;47.964;7.982;2022-10-15T15:20:29;96378.47;;;16.52;76.91
47366;BME280;33105;47.964;7.982;2022-10-15T15:23:31;96389.06;;;16.72;nan
47366;BME280;33105;47.964;7.982;2022-10-15T15:26:32;96389.78;;;16.64;79.60
47366;BME280;33105;47.964;7.982;2022-10-15T15:29:33;96392.63;;;16.59;79.95
47366;BME280;33105;47.964;7.982;2022-10-15T15:32:35;96391.53;;;16.46;81.24
47366;BME280;33105;47.964;7.982;2022-10-15T15:35:54;96398.59;;;16.25;83.30
47366;BME280;33105;47.964;7.982;2022-10-15T15:39:00;96396.34;;;16.13;82.62
47366;BME280;33105;47.964;7.982;2022-10-15T15:42:01;96404.75;;;16.08;83.98
47366;BME280;33105;47.964;7.982;2022-10-15T15:45:03;96406.78;;;16.03;83.92
47366;BME280;33105;47.964;7.982;2022-10-15T15:48:06;96405.09;;;15.88;83.67
47366;BME280;33105;47.964;7.982;2022-10-15T15:51:25;96405.56;;;15.62;83.54
47366;BME280;33105;47.964;7.982;2022-10-15T15:54:28;96427.31;;;15.45;84.19
47366;BME280;33105;47.964;7.982;2022-10-15T15:57:29;96422.53;;;15.70;83.32
47366;BME280;33105;47.964;7.982;2022-10-15T16:00:30;96425.91;;;15.48;84.71
47366;BME280;33105;47.964;7.982;2022-10-15T16:03:32;96425.88;;;15.15;86.88
47366;BME280;33105;47.964;7.982;2022-10-15T16:06:33;96437.41;;;15.17;87.76
47366;BME280;33105;47.964;7.982;2022-10-15T16:09:34;96430.50;;;15.01;89.97
47366;BME280;33105;47.964;7.982;2022-10-15T16:12:39;96437.66;;;15.35;88.83
47366;BME280;33105;47.964;7.982;2022-10-15T16:15:40;96438.94;;;15.42;88.94
47366;BME280;33105;47.964;7.982;2022-10-15T16:18:42;96442.72;;;15.46;88.47
47366;BME280;33105;47.964;7.982;2022-10-15T16:21:43;96443.50;;;15.33;88.37
47366;BME280;33105;47.964;7.982;2022-10-15T16:24:45;96457.47;;;15.37;89.02
47366;BME280;33105;47.964;7.982;2022-10-15T16:27:46;96460.31;;;15.31;89.74
47366;BME280;33105;47.964;7.982;2022-10-15T16:30:48;96460.84;;;15.15;89.72
47366;BME280;33105;47.964;7.982;2022-10-15T16:33:50;96461.59;;;15.20;89.32
47366;BME280;33105;47.964;7.982;2022-10-15T16:36:52;96475.28;;;14.64;92.36
47366;BME280;33105;47.964;7.982;2022-10-15T16:39:53;96474.38;;;14.92;92.65
47366;BME280;33105;47.964;7.982;2022-10-15T16:42:54;96467.47;;;14.95;91.43
47366;BME280;33105;47.964;7.982;2022-10-15T16:45:57;96465.28;;;14.73;91.98
47366;BME280;33105;47.964;7.982;2022-10-15T16:48:58;96473.06;;;14.66;92.07
47366;BME280;33105;47.964;7.982;2022-10-15T16:52:00;96475.78;;;14.90;91.75
47366;BME280;33105;47.964;7.982;2022-10-15T16:55:01;96479.06;;;14.92;91.65
47366;BME280;33105;47.964;7.982;2022-10-15T16:58:03;96485.31;;;14.55;92.79
47366;BME280;33105;47.964;7.982;2022-10-15T17:01:07;96482.84;;;14.77;92.39
47366;BME280;33105;47.964;7.982;2022-10-15T17:04:08;96485.28;;;14.79;92.41
47366;BME280;33105;47.964;7.982;2022-10-15T17:07:10;96487.56;;;14.72;93.22
47366;BME280;33105;47.964;7.982;2022-10-15T17:10:11;96498.75;;;14.33;93.92
47366;BME280;33105;47.964;7.982;2022-10-15T17:13:14;96495.94;;;14.38;93.92
47366;BME280;33105;47.964;7.982;2022-10-15T17:16:19;96504.97;;;14.43;92.82
47366;BME280;33105;47.964;7.982;2022-10-15T17:19:23;96510.38;;;14.24;93.50
47366;BME280;33105;47.964;7.982;2022-10-15T17:22:25;96508.56;;;14.39;93.44
47366;BME280;33105;47.964;7.982;2022-10-15T17:25:26;96503.06;;;14.62;93.15
47366;BME280;33105;47.964;7.982;2022-10-15T17:28:28;96502.50;;;14.66;93.52
47366;BME280;33105;47.964;7.982;2022-10-15T17:31:29;96501.03;;;14.25;93.93
47366;BME280;33105;47.964;7.982;2022-10-15T17:34:31;96504.47;;;14.60;93.16
47366;BME280;33105;47.964;7.982;2022-10-15T17:37:34;96507.75;;;14.62;87.58
47366;BME280;33105;47.964;7.982;2022-10-15T17:40:39;96511.31;;;14.86;90.44
47366;BME280;33105;47.964;7.982;2022-10-15T17:43:44;96507.94;;;14.71;89.52
47366;BME280;33105;47.964;7.982;2022-10-15T17:46:46;96511.41;;;15.00;91.27
47366;BME280;33105;47.964;7.982;2022-10-15T17:49:47;96519.31;;;15.07;88.52
47366;BME280;33105;47.964;7.982;2022-10-15T17:52:49;96516.59;;;14.83;89.10
47366;BME280;33105;47.964;7.982;2022-10-15T17:55:50;96503.97;;;15.19;84.15
47366;BME280;33105;47.964;7.982;2022-10-15T17:59:04;96502.69;;;15.12;87.27
47366;BME280;33105;47.964;7.982;2022-10-15T18:02:05;96505.69;;;15.15;87.40